createdAt,value
2023-05-14T00:02:11.256Z,11.92
2023-05-14T00:04:40.844Z,11.86
2023-05-14T00:07:15.138Z,11.82
2023-05-14T00:09:44.607Z,11.81
2023-05-14T00:12:14.146Z,11.77
2023-05-14T00:14:43.568Z,11.71
2023-05-14T00:17:14.882Z,11.69
2023-05-14T00:19:44.143Z,11.63
2023-05-14T00:22:14.896Z,11.37
2023-05-14T00:24:49.748Z,11.62
2023-05-14T00:27:24.130Z,11.65
2023-05-14T00:29:53.398Z,11.57
2023-05-14T00:32:31.273Z,11.56
2023-05-14T00:35:00.974Z,11.51
2023-05-14T00:37:33.502Z,11.08
2023-05-14T00:40:03.396Z,11.42
2023-05-14T00:42:33.847Z,11.37
2023-05-14T00:45:03.384Z,11.36
2023-05-14T00:47:36.962Z,11.31
2023-05-14T00:50:07.489Z,11.40
2023-05-14T00:52:43.649Z,11.27
2023-05-14T00:55:16.118Z,11.30
2023-05-14T00:57:45.570Z,11.28
2023-05-14T01:00:16.350Z,11.28
2023-05-14T01:02:53.002Z,11.24
2023-05-14T01:05:38.255Z,11.12
2023-05-14T01:08:20.582Z,11.22
2023-05-14T01:10:54.959Z,11.17
2023-05-14T01:13:35.964Z,11.15
2023-05-14T01:16:06.617Z,11.10
2023-05-14T01:18:38.354Z,11.13
2023-05-14T01:21:07.679Z,11.17
2023-05-14T01:23:38.786Z,11.09
2023-05-14T01:26:13.203Z,11.10
2023-05-14T01:28:47.901Z,11.06
2023-05-14T01:31:27.528Z,10.95
2023-05-14T01:34:01.163Z,10.98
2023-05-14T01:36:32.603Z,11.00
2023-05-14T01:39:09.865Z,10.97
2023-05-14T01:44:16.649Z,11.01
2023-05-14T01:46:46.063Z,11.05
2023-05-14T01:49:15.849Z,11.07
2023-05-14T01:51:45.134Z,11.07
2023-05-14T01:54:16.488Z,11.08
2023-05-14T01:56:45.779Z,10.98
2023-05-14T01:59:20.590Z,11.01
2023-05-14T02:01:50.238Z,11.11
2023-05-14T02:04:20.492Z,11.08
2023-05-14T02:06:50.122Z,11.06
2023-05-14T02:09:26.617Z,11.09
2023-05-14T02:11:55.885Z,11.05
2023-05-14T02:14:25.349Z,10.99
2023-05-14T02:16:54.862Z,11.10
2023-05-14T02:19:24.471Z,11.08
2023-05-14T02:22:11.371Z,11.12
2023-05-14T02:24:46.585Z,11.08
2023-05-14T02:27:15.862Z,11.09
2023-05-14T02:29:45.175Z,11.11
2023-05-14T02:32:14.573Z,11.06
2023-05-14T02:34:48.948Z,11.04
2023-05-14T02:37:18.402Z,11.05
2023-05-14T02:39:49.687Z,11.04
2023-05-14T02:42:19.007Z,11.01
2023-05-14T02:44:49.793Z,10.98
2023-05-14T02:47:18.970Z,10.99
2023-05-14T02:49:48.248Z,10.96
2023-05-14T02:52:24.529Z,10.94
2023-05-14T02:54:55.710Z,10.94
2023-05-14T02:57:25.045Z,10.93
2023-05-14T03:00:05.729Z,10.99
2023-05-14T03:02:39.088Z,10.97
2023-05-14T03:05:09.010Z,11.01
2023-05-14T03:07:38.443Z,10.94
2023-05-14T03:10:16.150Z,10.94
2023-05-14T03:12:45.395Z,10.97
2023-05-14T03:15:14.951Z,11.01
2023-05-14T03:17:49.466Z,10.83
2023-05-14T03:20:19.176Z,10.99
2023-05-14T03:22:54.179Z,11.04
2023-05-14T03:25:25.596Z,11.08
2023-05-14T03:27:54.970Z,11.14
2023-05-14T03:30:24.646Z,11.15
2023-05-14T03:33:01.634Z,11.19
2023-05-14T03:35:31.176Z,11.26
2023-05-14T03:38:00.541Z,11.39
2023-05-14T03:40:37.022Z,11.59
2023-05-14T03:43:06.418Z,11.68
2023-05-14T03:45:35.795Z,11.88
2023-05-14T03:48:05.704Z,12.07
2023-05-14T03:50:35.742Z,12.19
2023-05-14T03:53:10.207Z,12.22
2023-05-14T03:55:41.525Z,12.18
2023-05-14T03:58:14.426Z,12.19
2023-05-14T04:00:44.536Z,12.27
2023-05-14T04:03:19.510Z,12.44
2023-05-14T04:05:49.549Z,12.51
2023-05-14T04:08:24.654Z,12.45
2023-05-14T04:10:56.123Z,12.52
2023-05-14T04:13:26.072Z,12.59
2023-05-14T04:15:56.693Z,12.68
2023-05-14T04:18:27.318Z,12.91
2023-05-14T04:21:13.287Z,13.10
2023-05-14T04:23:42.733Z,13.13
2023-05-14T04:26:14.073Z,13.53
2023-05-14T04:28:49.687Z,13.81
2023-05-14T04:31:19.055Z,13.74
2023-05-14T04:33:50.009Z,13.72
2023-05-14T04:36:19.273Z,13.85
2023-05-14T04:38:48.572Z,13.95
2023-05-14T04:41:25.472Z,14.08
2023-05-14T04:44:00.851Z,14.10
2023-05-14T04:46:30.336Z,13.80
2023-05-14T04:48:59.668Z,13.72
2023-05-14T04:54:14.600Z,13.48
2023-05-14T04:56:52.133Z,13.50
2023-05-14T04:59:21.673Z,13.60
2023-05-14T05:01:51.352Z,13.75
2023-05-14T05:07:29.583Z,13.87
2023-05-14T05:10:00.249Z,13.72
2023-05-14T05:12:46.535Z,13.73
2023-05-14T05:15:36.007Z,13.64
2023-05-14T05:18:06.088Z,13.59
2023-05-14T05:20:36.637Z,13.54
2023-05-14T05:23:06.182Z,13.35
2023-05-14T05:25:35.989Z,13.44
2023-05-14T05:28:13.793Z,13.36
2023-05-14T05:30:48.383Z,13.35
2023-05-14T05:33:17.964Z,13.37
2023-05-14T05:35:47.952Z,13.44
2023-05-14T05:38:17.950Z,13.48
2023-05-14T05:40:47.633Z,13.54
2023-05-14T05:43:19.387Z,13.58
2023-05-14T05:45:48.342Z,13.68
2023-05-14T05:48:28.521Z,13.61
2023-05-14T05:50:58.274Z,13.63
2023-05-14T05:53:27.828Z,13.63
2023-05-14T05:56:02.327Z,13.61
2023-05-14T05:58:33.615Z,13.63
2023-05-14T06:01:17.922Z,13.68
2023-05-14T06:03:48.721Z,13.70
2023-05-14T06:06:19.081Z,13.76
2023-05-14T06:08:48.513Z,13.78
2023-05-14T06:11:18.776Z,13.79
2023-05-14T06:13:55.419Z,13.94
2023-05-14T06:16:25.001Z,13.97
2023-05-14T06:18:55.635Z,14.08
2023-05-14T06:21:25.044Z,14.13
2023-05-14T06:23:54.672Z,14.27
2023-05-14T06:26:29.146Z,14.32
2023-05-14T06:29:00.297Z,14.42
2023-05-14T06:31:29.945Z,14.60
2023-05-14T06:33:59.276Z,14.61
2023-05-14T06:36:34.883Z,14.60
2023-05-14T06:39:04.470Z,14.69
2023-05-14T06:41:34.284Z,14.72
2023-05-14T06:44:05.768Z,14.88
2023-05-14T06:46:35.356Z,15.06
2023-05-14T06:49:04.944Z,15.10
2023-05-14T06:51:40.512Z,15.11
2023-05-14T06:54:09.832Z,15.39
2023-05-14T06:56:39.117Z,15.27
2023-05-14T06:59:16.799Z,15.36
2023-05-14T07:01:46.134Z,15.46
2023-05-14T07:04:15.506Z,15.58
2023-05-14T07:06:44.812Z,15.67
2023-05-14T07:09:24.439Z,15.94
2023-05-14T07:11:54.004Z,16.07
2023-05-14T07:14:25.439Z,16.21
2023-05-14T07:16:55.333Z,16.45
2023-05-14T07:22:00.866Z,16.21
2023-05-14T07:24:30.294Z,16.40
2023-05-14T07:27:04.824Z,16.64
2023-05-14T07:29:41.484Z,16.72
2023-05-14T07:32:11.733Z,16.89
2023-05-14T07:34:42.135Z,16.86
2023-05-14T07:37:11.816Z,16.87
2023-05-14T07:39:41.400Z,16.98
2023-05-14T07:42:11.712Z,17.39
2023-05-14T07:44:46.907Z,17.78
2023-05-14T07:47:16.021Z,18.18
2023-05-14T07:49:45.304Z,18.06
2023-05-14T07:54:50.752Z,17.85
2023-05-14T07:57:20.451Z,17.69
2023-05-14T07:59:52.042Z,17.34
2023-05-14T08:02:25.618Z,17.57
2023-05-14T08:04:56.441Z,17.39
2023-05-14T08:07:27.491Z,17.33
2023-05-14T08:10:01.932Z,17.33
2023-05-14T08:12:34.724Z,17.39
2023-05-14T08:15:07.663Z,17.56
2023-05-14T08:17:37.327Z,17.51
2023-05-14T08:20:08.770Z,17.50
2023-05-14T08:22:38.215Z,17.57
2023-05-14T08:25:08.602Z,17.70
2023-05-14T08:27:37.965Z,17.38
2023-05-14T08:30:10.327Z,17.39
2023-05-14T08:32:40.159Z,17.73
2023-05-14T08:35:10.620Z,17.93
2023-05-14T08:37:51.978Z,18.06
2023-05-14T08:40:22.066Z,18.17
2023-05-14T08:42:53.195Z,18.15
2023-05-14T08:45:30.512Z,18.35
2023-05-14T08:48:15.300Z,18.40
2023-05-14T08:50:45.578Z,17.82
2023-05-14T08:53:15.009Z,17.57
2023-05-14T08:55:52.820Z,17.47
2023-05-14T08:58:37.257Z,17.37
2023-05-14T09:01:08.805Z,17.37
2023-05-14T09:03:39.023Z,17.51
2023-05-14T09:06:09.632Z,17.44
2023-05-14T09:08:39.250Z,17.38
2023-05-14T09:11:09.076Z,17.31
2023-05-14T09:13:40.731Z,17.34
2023-05-14T09:16:11.941Z,17.38
2023-05-14T09:18:47.883Z,17.31
2023-05-14T09:21:17.937Z,17.31
2023-05-14T09:24:01.915Z,17.62
2023-05-14T09:26:34.344Z,17.83
2023-05-14T09:29:08.806Z,18.04
2023-05-14T09:31:41.160Z,17.82
2023-05-14T09:34:10.762Z,17.47
2023-05-14T09:36:40.286Z,17.32
2023-05-14T09:39:15.868Z,17.46
2023-05-14T09:41:45.456Z,17.68
2023-05-14T09:44:14.819Z,17.65
2023-05-14T09:46:51.691Z,17.73
2023-05-14T09:49:21.632Z,17.86
2023-05-14T09:51:52.118Z,17.81
2023-05-14T09:54:21.614Z,18.08
2023-05-14T09:56:51.010Z,18.26
2023-05-14T09:59:26.912Z,18.00
2023-05-14T10:02:00.071Z,17.81
2023-05-14T10:04:29.867Z,17.52
2023-05-14T10:06:59.504Z,17.70
2023-05-14T10:09:33.900Z,18.21
2023-05-14T10:12:03.729Z,18.67
2023-05-14T10:14:38.350Z,18.49
2023-05-14T10:17:17.911Z,18.37
2023-05-14T10:19:52.673Z,18.27
2023-05-14T10:22:26.519Z,17.87
2023-05-14T10:24:57.706Z,17.68
2023-05-14T10:27:27.774Z,17.59
2023-05-14T10:29:57.812Z,17.53
2023-05-14T10:32:37.677Z,17.56
2023-05-14T10:35:20.000Z,17.70
2023-05-14T10:37:49.441Z,17.93
2023-05-14T10:40:19.691Z,18.10
2023-05-14T10:42:49.339Z,18.38
2023-05-14T10:45:19.023Z,18.83
2023-05-14T10:47:51.079Z,19.13
2023-05-14T10:50:20.674Z,18.92
2023-05-14T10:52:50.975Z,18.37
2023-05-14T10:57:56.407Z,18.20
2023-05-14T11:00:34.916Z,18.09
2023-05-14T11:03:09.302Z,18.20
2023-05-14T11:05:40.537Z,18.36
2023-05-14T11:08:11.094Z,18.50
2023-05-14T11:10:42.653Z,18.22
2023-05-14T11:13:12.137Z,18.49
2023-05-14T11:15:46.811Z,18.44
2023-05-14T11:18:28.612Z,18.22
2023-05-14T11:21:01.503Z,17.99
2023-05-14T11:23:31.568Z,17.78
2023-05-14T11:26:01.277Z,17.81
2023-05-14T11:28:31.620Z,18.10
2023-05-14T11:31:01.087Z,18.14
2023-05-14T11:33:33.578Z,18.56
2023-05-14T11:36:03.304Z,18.73
2023-05-14T11:38:51.872Z,18.72
2023-05-14T11:41:27.837Z,18.44
2023-05-14T11:43:57.337Z,18.67
2023-05-14T11:46:28.216Z,18.97
2023-05-14T11:48:59.581Z,18.84
2023-05-14T11:51:28.927Z,18.80
2023-05-14T11:53:58.612Z,18.40
2023-05-14T11:56:27.921Z,18.20
2023-05-14T11:59:13.514Z,17.75
2023-05-14T12:01:50.082Z,17.46
2023-05-14T12:04:22.859Z,17.47
2023-05-14T12:07:13.344Z,17.78
2023-05-14T12:09:45.192Z,18.09
2023-05-14T12:12:15.078Z,17.87
2023-05-14T12:14:45.161Z,17.74
2023-05-14T12:17:16.358Z,17.68
2023-05-14T12:19:50.542Z,17.50
2023-05-14T12:22:25.794Z,17.60
2023-05-14T12:24:56.327Z,17.52
2023-05-14T12:32:41.705Z,17.57
2023-05-14T12:35:13.198Z,17.49
2023-05-14T12:37:42.805Z,17.57
2023-05-14T12:40:13.285Z,17.27
2023-05-14T12:42:42.924Z,17.10
2023-05-14T12:51:30.880Z,16.91
2023-05-14T12:54:06.882Z,16.95
2023-05-14T12:56:37.511Z,16.89
2023-05-14T12:59:07.104Z,16.92
2023-05-14T13:01:37.742Z,16.98
2023-05-14T13:04:07.724Z,17.02
2023-05-14T13:06:39.033Z,16.99
2023-05-14T13:11:50.787Z,17.06
2023-05-14T13:14:20.356Z,17.20
2023-05-14T13:16:49.935Z,17.21
2023-05-14T13:19:19.289Z,17.19
2023-05-14T13:21:50.613Z,17.49
2023-05-14T13:24:19.975Z,17.62
2023-05-14T13:26:49.303Z,17.81
2023-05-14T13:29:23.659Z,17.95
2023-05-14T13:31:53.109Z,17.75
2023-05-14T13:34:22.485Z,17.50
2023-05-14T13:36:59.142Z,17.47
2023-05-14T13:39:28.649Z,17.17
2023-05-14T13:41:58.522Z,17.09
2023-05-14T13:44:33.205Z,17.19
2023-05-14T13:47:02.533Z,17.23
2023-05-14T13:49:32.088Z,17.12
2023-05-14T13:52:03.470Z,17.18
2023-05-14T13:54:32.951Z,17.05
2023-05-14T13:57:02.193Z,16.91
2023-05-14T14:02:07.485Z,16.88
2023-05-14T14:04:36.911Z,16.87
2023-05-14T14:07:13.271Z,16.71
2023-05-14T14:09:43.170Z,16.42
2023-05-14T14:12:12.681Z,16.08
2023-05-14T14:14:42.196Z,16.33
2023-05-14T14:17:11.557Z,16.38
2023-05-14T14:19:52.738Z,16.38
2023-05-14T14:22:27.171Z,16.39
2023-05-14T14:24:58.541Z,16.29
2023-05-14T14:27:35.721Z,16.49
2023-05-14T14:30:05.194Z,16.32
2023-05-14T14:32:35.425Z,16.28
2023-05-14T14:35:04.719Z,16.28
2023-05-14T14:37:41.612Z,16.22
2023-05-14T14:40:11.419Z,16.30
2023-05-14T14:42:40.636Z,15.99
2023-05-14T14:45:11.224Z,16.27
2023-05-14T14:47:40.862Z,16.24
2023-05-14T14:50:12.173Z,16.17
2023-05-14T14:52:45.906Z,16.23
2023-05-14T14:55:25.561Z,16.19
2023-05-14T14:57:55.018Z,16.31
2023-05-14T15:00:24.459Z,16.11
2023-05-14T15:05:28.956Z,16.12
2023-05-14T15:08:05.292Z,16.04
2023-05-14T15:10:37.455Z,15.94
2023-05-14T15:13:08.270Z,16.07
2023-05-14T15:15:42.825Z,16.10
2023-05-14T15:18:12.642Z,16.20
2023-05-14T15:20:42.250Z,16.03
2023-05-14T15:23:13.543Z,15.84
2023-05-14T15:25:42.972Z,15.78
2023-05-14T15:28:12.354Z,15.49
2023-05-14T15:30:41.741Z,15.72
2023-05-14T15:33:18.714Z,15.83
2023-05-14T15:35:48.050Z,15.82
2023-05-14T15:38:19.920Z,15.78
2023-05-14T15:40:50.632Z,15.37
2023-05-14T15:43:19.948Z,15.65
2023-05-14T15:45:50.409Z,15.37
2023-05-14T15:48:19.699Z,15.03
2023-05-14T15:50:53.015Z,14.93
2023-05-14T15:53:25.373Z,14.89
2023-05-14T15:55:59.920Z,14.79
2023-05-14T15:58:29.355Z,14.76
2023-05-14T16:00:58.787Z,14.52
2023-05-14T16:03:28.389Z,14.40
2023-05-14T16:06:00.853Z,14.43
2023-05-14T16:08:32.391Z,14.39
2023-05-14T16:11:02.026Z,14.37
2023-05-14T16:13:31.408Z,14.31
2023-05-14T16:19:01.843Z,14.45
2023-05-14T16:21:31.699Z,14.39
2023-05-14T16:24:03.113Z,14.47
2023-05-14T16:26:32.838Z,14.39
2023-05-14T16:29:02.341Z,14.43
2023-05-14T16:31:31.905Z,14.42
2023-05-14T16:36:51.805Z,14.72
2023-05-14T16:39:28.447Z,15.01
2023-05-14T16:42:09.324Z,15.01
2023-05-14T16:44:38.749Z,15.11
2023-05-14T16:47:08.531Z,14.92
2023-05-14T16:49:37.844Z,14.74
2023-05-14T16:52:13.588Z,14.52
2023-05-14T16:54:59.835Z,14.49
2023-05-14T16:57:49.582Z,14.34
2023-05-14T17:00:19.864Z,14.10
2023-05-14T17:02:54.403Z,13.97
2023-05-14T17:05:24.270Z,13.77
2023-05-14T17:08:13.793Z,13.74
2023-05-14T17:11:31.712Z,13.47
2023-05-14T17:14:19.468Z,13.31
2023-05-14T17:17:03.948Z,13.22
2023-05-14T17:19:33.337Z,13.14
2023-05-14T17:22:05.404Z,13.03
2023-05-14T17:24:35.151Z,12.99
2023-05-14T17:27:07.089Z,12.96
2023-05-14T17:29:49.372Z,12.86
2023-05-14T17:32:18.890Z,12.79
2023-05-14T17:34:48.494Z,12.80
2023-05-14T17:37:23.008Z,12.73
2023-05-14T17:39:52.729Z,12.66
2023-05-14T17:42:24.165Z,12.66
2023-05-14T17:44:53.534Z,12.61
2023-05-14T17:47:23.346Z,12.61
2023-05-14T17:49:57.858Z,12.61
2023-05-14T17:52:27.282Z,12.59
2023-05-14T17:54:56.896Z,12.57
2023-05-14T17:57:29.331Z,12.52
2023-05-14T18:00:18.034Z,12.50
2023-05-14T18:02:48.355Z,12.43
2023-05-14T18:05:20.006Z,12.41
2023-05-14T18:08:05.028Z,12.41
2023-05-14T18:10:34.608Z,12.28
2023-05-14T18:13:24.764Z,12.24
2023-05-14T18:15:56.211Z,12.11
2023-05-14T18:18:47.684Z,12.10
2023-05-14T18:21:30.135Z,11.99
2023-05-14T18:24:26.970Z,12.05
2023-05-14T18:26:56.922Z,11.88
2023-05-14T18:29:28.176Z,11.92
2023-05-14T18:31:57.736Z,11.75
2023-05-14T18:34:32.501Z,11.89
2023-05-14T18:37:02.009Z,11.68
2023-05-14T18:39:31.609Z,11.77
2023-05-14T18:42:01.317Z,11.68
2023-05-14T18:44:32.736Z,11.75
2023-05-14T18:47:02.231Z,11.77
2023-05-14T18:49:31.460Z,11.82
2023-05-14T18:52:01.028Z,11.78
2023-05-14T18:54:30.825Z,11.73
2023-05-14T18:57:37.280Z,11.69
2023-05-14T19:00:10.619Z,11.64
2023-05-14T19:05:20.135Z,11.75
2023-05-14T19:07:49.866Z,11.70
2023-05-14T19:10:19.611Z,11.62
2023-05-14T19:13:03.093Z,11.66
2023-05-14T19:15:34.590Z,11.62
2023-05-14T19:18:04.343Z,11.55
2023-05-14T19:20:33.922Z,11.32
2023-05-14T19:23:09.272Z,11.47
2023-05-14T19:25:39.097Z,11.43
2023-05-14T19:28:08.645Z,11.40
2023-05-14T19:30:39.981Z,11.34
2023-05-14T19:33:14.485Z,11.27
2023-05-14T19:35:44.396Z,11.34
2023-05-14T19:38:29.346Z,11.33
2023-05-14T19:41:04.001Z,11.27
2023-05-14T19:43:33.777Z,11.23
2023-05-14T19:46:06.366Z,11.18
2023-05-14T19:48:36.169Z,11.19
2023-05-14T19:51:05.679Z,11.10
2023-05-14T19:53:35.470Z,11.04
2023-05-14T19:56:04.931Z,11.16
2023-05-14T19:58:34.431Z,11.12
2023-05-14T20:01:06.022Z,11.15
2023-05-14T20:03:40.517Z,11.21
2023-05-14T20:06:10.496Z,11.10
2023-05-14T20:08:42.339Z,10.96
2023-05-14T20:11:22.130Z,10.99
2023-05-14T20:13:51.505Z,11.00
2023-05-14T20:16:47.141Z,11.01
2023-05-14T20:19:16.862Z,10.96
2023-05-14T20:24:50.673Z,10.99
2023-05-14T20:27:19.996Z,11.01
2023-05-14T20:29:56.373Z,11.02
2023-05-14T20:32:27.743Z,10.95
2023-05-14T20:35:12.182Z,10.92
2023-05-14T20:37:41.759Z,11.04
2023-05-14T20:40:12.714Z,11.00
2023-05-14T20:42:55.498Z,11.02
2023-05-14T20:45:25.066Z,11.00
2023-05-14T20:47:57.671Z,11.00
2023-05-14T20:50:28.037Z,10.97
2023-05-14T20:52:57.659Z,10.91
2023-05-14T20:55:27.424Z,10.88
2023-05-14T20:57:57.081Z,10.87
2023-05-14T21:00:26.504Z,10.83
2023-05-14T21:03:04.290Z,10.71
2023-05-14T21:05:34.637Z,10.78
2023-05-14T21:08:03.836Z,10.80
2023-05-14T21:10:33.250Z,10.72
2023-05-14T21:13:02.538Z,10.73
2023-05-14T21:15:37.071Z,10.76
2023-05-14T21:18:08.391Z,10.73
2023-05-14T21:20:37.785Z,10.70
2023-05-14T21:23:07.164Z,10.68
2023-05-14T21:25:36.946Z,10.62
2023-05-14T21:30:42.086Z,10.57
2023-05-14T21:33:13.496Z,10.44
2023-05-14T21:35:49.008Z,10.48
2023-05-14T21:38:18.823Z,10.45
2023-05-14T21:40:48.101Z,10.40
2023-05-14T21:43:18.073Z,10.42
2023-05-14T21:45:48.055Z,10.28
2023-05-14T21:48:19.430Z,10.41
2023-05-14T21:50:49.074Z,10.37
2023-05-14T21:53:18.514Z,10.28
2023-05-14T21:55:49.502Z,10.28
2023-05-14T21:58:24.253Z,10.24
2023-05-14T22:00:53.712Z,10.18
2023-05-14T22:03:25.189Z,9.95
2023-05-14T22:05:59.600Z,10.02
2023-05-14T22:08:30.776Z,10.02
2023-05-14T22:11:00.470Z,9.98
2023-05-14T22:13:29.735Z,9.95
2023-05-14T22:16:09.116Z,10.00
2023-05-14T22:18:43.850Z,9.94
2023-05-14T22:21:19.034Z,9.93
2023-05-14T22:23:50.138Z,9.92
2023-05-14T22:26:21.134Z,9.90
2023-05-14T22:28:57.263Z,9.90
2023-05-14T22:31:26.594Z,9.90
2023-05-14T22:33:57.876Z,9.91
2023-05-14T22:36:27.327Z,9.87
2023-05-14T22:38:56.612Z,9.79
2023-05-14T22:41:31.517Z,9.73
2023-05-14T22:44:00.721Z,9.71
2023-05-14T22:46:30.227Z,9.69
2023-05-14T22:49:03.791Z,9.62
2023-05-14T22:51:36.097Z,9.55
2023-05-14T22:54:10.890Z,9.45
2023-05-14T22:56:40.304Z,9.42
2023-05-14T22:59:09.801Z,9.30
2023-05-14T23:01:39.242Z,9.29
2023-05-14T23:06:46.034Z,9.14
2023-05-14T23:09:15.273Z,9.18
2023-05-14T23:11:44.735Z,9.08
2023-05-14T23:14:14.111Z,9.01
2023-05-14T23:16:43.597Z,8.90
2023-05-14T23:19:21.346Z,9.03
2023-05-14T23:21:50.790Z,9.00
2023-05-14T23:24:20.060Z,9.06
2023-05-14T23:32:07.124Z,8.93
2023-05-14T23:34:44.103Z,8.90
2023-05-14T23:37:13.721Z,8.88
2023-05-14T23:39:43.022Z,8.84
2023-05-14T23:42:12.406Z,8.72
2023-05-14T23:44:42.464Z,8.58
2023-05-14T23:47:12.070Z,8.59
2023-05-14T23:49:43.485Z,8.57
2023-05-14T23:52:13.225Z,8.52
2023-05-14T23:54:42.577Z,8.46
2023-05-14T23:57:14.516Z,8.44
2023-05-14T23:59:48.268Z,8.39
